createdAt,value
2018-05-24T00:00:42.005Z,12.00
2018-05-24T00:03:11.042Z,11.98
2018-05-24T00:05:39.325Z,12.44
2018-05-24T00:08:07.563Z,12.47
2018-05-24T00:10:35.824Z,12.48
2018-05-24T00:13:04.090Z,12.16
2018-05-24T00:15:32.358Z,12.05
2018-05-24T00:18:00.619Z,11.94
2018-05-24T00:20:28.886Z,11.88
2018-05-24T00:22:57.908Z,12.14
2018-05-24T00:25:26.167Z,12.18
2018-05-24T00:27:54.443Z,11.88
2018-05-24T00:30:23.482Z,11.80
2018-05-24T00:32:51.726Z,11.84
2018-05-24T00:35:19.998Z,11.97
2018-05-24T00:37:49.027Z,11.88
2018-05-24T00:40:17.290Z,11.89
2018-05-24T00:42:45.543Z,11.96
2018-05-24T00:45:14.572Z,12.04
2018-05-24T00:47:42.849Z,12.08
2018-05-24T00:50:11.121Z,12.12
2018-05-24T00:52:40.135Z,12.08
2018-05-24T00:55:26.275Z,12.16
2018-05-24T00:57:56.035Z,12.11
2018-05-24T01:00:24.804Z,12.03
2018-05-24T01:02:53.838Z,12.02
2018-05-24T01:05:22.111Z,11.96
2018-05-24T01:07:50.370Z,11.89
2018-05-24T01:10:19.408Z,11.81
2018-05-24T01:12:47.676Z,11.75
2018-05-24T01:15:15.952Z,11.76
2018-05-24T01:17:44.215Z,11.76
2018-05-24T01:20:12.485Z,11.82
2018-05-24T01:22:41.517Z,12.19
2018-05-24T01:25:09.783Z,12.25
2018-05-24T01:27:38.049Z,12.09
2018-05-24T01:30:07.070Z,12.15
2018-05-24T01:32:35.836Z,11.94
2018-05-24T01:35:04.852Z,11.74
2018-05-24T01:37:51.024Z,11.68
2018-05-24T01:40:20.042Z,11.72
2018-05-24T01:42:48.313Z,11.71
2018-05-24T01:45:16.581Z,11.73
2018-05-24T01:47:45.612Z,11.77
2018-05-24T01:50:13.866Z,11.95
2018-05-24T01:52:42.146Z,12.28
2018-05-24T01:55:11.320Z,12.36
2018-05-24T01:57:40.336Z,12.01
2018-05-24T02:00:09.356Z,11.92
2018-05-24T02:02:37.637Z,11.90
2018-05-24T02:05:05.891Z,12.01
2018-05-24T02:07:34.919Z,11.92
2018-05-24T02:10:03.173Z,11.89
2018-05-24T02:12:33.439Z,11.89
2018-05-24T02:15:02.016Z,11.86
2018-05-24T02:17:30.291Z,11.87
2018-05-24T02:19:58.548Z,11.94
2018-05-24T02:22:27.664Z,11.93
2018-05-24T02:24:55.939Z,11.93
2018-05-24T02:27:24.218Z,11.94
2018-05-24T02:29:53.235Z,11.94
2018-05-24T02:32:21.502Z,11.93
2018-05-24T02:34:50.523Z,11.90
2018-05-24T02:37:18.931Z,11.85
2018-05-24T02:39:47.192Z,11.84
2018-05-24T02:42:15.452Z,11.76
2018-05-24T02:44:43.719Z,11.83
2018-05-24T02:47:13.460Z,11.87
2018-05-24T02:49:41.732Z,11.91
2018-05-24T02:52:10.231Z,11.94
2018-05-24T02:54:38.487Z,12.16
2018-05-24T02:57:06.761Z,12.30
2018-05-24T02:59:35.766Z,12.03
2018-05-24T03:02:04.031Z,11.99
2018-05-24T03:04:33.055Z,11.94
2018-05-24T03:07:01.319Z,11.88
2018-05-24T03:09:29.575Z,12.13
2018-05-24T03:11:58.613Z,12.00
2018-05-24T03:14:27.020Z,11.92
2018-05-24T03:16:55.158Z,11.89
2018-05-24T03:19:24.171Z,11.99
2018-05-24T03:21:52.449Z,12.07
2018-05-24T03:24:21.475Z,12.00
2018-05-24T03:26:49.744Z,12.01
2018-05-24T03:29:17.990Z,12.00
2018-05-24T03:31:47.030Z,12.03
2018-05-24T03:34:15.295Z,12.09
2018-05-24T03:36:43.574Z,12.25
2018-05-24T03:39:11.814Z,12.39
2018-05-24T03:41:40.848Z,12.33
2018-05-24T03:44:09.120Z,12.34
2018-05-24T03:46:38.144Z,12.68
2018-05-24T03:49:07.256Z,12.80
2018-05-24T03:51:35.502Z,12.71
2018-05-24T03:54:03.770Z,12.62
2018-05-24T03:56:32.791Z,12.64
2018-05-24T03:59:04.063Z,12.49
2018-05-24T04:01:50.272Z,12.49
2018-05-24T04:04:38.210Z,12.70
2018-05-24T04:07:07.255Z,12.69
2018-05-24T04:09:35.512Z,12.71
2018-05-24T04:12:04.629Z,12.97
2018-05-24T04:14:32.834Z,13.22
2018-05-24T04:17:01.076Z,13.21
2018-05-24T04:19:29.355Z,13.11
2018-05-24T04:21:57.614Z,13.18
2018-05-24T04:24:26.654Z,13.10
2018-05-24T04:26:54.913Z,13.11
2018-05-24T04:29:23.928Z,13.16
2018-05-24T04:31:52.191Z,13.22
2018-05-24T04:34:20.463Z,13.18
2018-05-24T04:36:49.583Z,13.14
2018-05-24T04:39:17.856Z,13.21
2018-05-24T04:41:46.107Z,13.28
2018-05-24T04:44:15.147Z,13.32
2018-05-24T04:46:43.410Z,13.41
2018-05-24T04:49:12.439Z,13.76
2018-05-24T04:51:40.719Z,13.74
2018-05-24T04:54:08.982Z,13.73
2018-05-24T04:56:37.242Z,13.73
2018-05-24T04:59:06.275Z,13.70
2018-05-24T05:01:34.590Z,13.63
2018-05-24T05:04:03.512Z,13.63
2018-05-24T05:06:32.543Z,13.66
2018-05-24T05:09:00.808Z,13.76
2018-05-24T05:11:29.064Z,13.90
2018-05-24T05:13:58.093Z,13.98
2018-05-24T05:16:26.344Z,14.14
2018-05-24T05:18:55.379Z,14.58
2018-05-24T05:21:23.656Z,14.68
2018-05-24T05:23:51.920Z,14.77
2018-05-24T05:26:20.943Z,14.73
2018-05-24T05:28:49.207Z,14.92
2018-05-24T05:31:17.455Z,14.99
2018-05-24T05:33:46.495Z,15.48
2018-05-24T05:36:14.741Z,15.45
2018-05-24T05:38:43.768Z,15.38
2018-05-24T05:41:12.015Z,15.58
2018-05-24T05:43:41.051Z,15.71
2018-05-24T05:46:09.305Z,15.56
2018-05-24T05:48:39.767Z,15.18
2018-05-24T05:51:08.045Z,14.98
2018-05-24T05:53:36.312Z,14.85
2018-05-24T05:56:04.567Z,14.91
2018-05-24T05:58:33.604Z,15.09
2018-05-24T06:01:01.867Z,14.99
2018-05-24T06:03:30.138Z,15.05
2018-05-24T06:05:59.161Z,14.75
2018-05-24T06:08:27.426Z,15.09
2018-05-24T06:10:56.459Z,15.27
2018-05-24T06:13:24.816Z,15.22
2018-05-24T06:15:53.076Z,15.50
2018-05-24T06:18:22.111Z,15.93
2018-05-24T06:20:50.361Z,15.86
2018-05-24T06:23:19.382Z,15.86
2018-05-24T06:25:47.651Z,15.85
2018-05-24T06:28:16.666Z,15.70
2018-05-24T06:30:44.924Z,15.96
2018-05-24T06:33:13.176Z,16.48
2018-05-24T06:35:42.209Z,16.56
2018-05-24T06:38:10.469Z,16.56
2018-05-24T06:40:39.621Z,16.65
2018-05-24T06:43:07.762Z,16.64
2018-05-24T06:45:36.023Z,16.16
2018-05-24T06:48:05.266Z,16.25
2018-05-24T06:50:33.525Z,16.37
2018-05-24T06:53:02.533Z,16.28
2018-05-24T06:55:30.811Z,16.29
2018-05-24T06:57:59.073Z,16.24
2018-05-24T07:00:28.101Z,16.60
2018-05-24T07:02:56.359Z,16.66
2018-05-24T07:05:24.635Z,16.82
2018-05-24T07:07:53.660Z,16.92
2018-05-24T07:10:21.916Z,16.56
2018-05-24T07:12:50.186Z,17.00
2018-05-24T07:15:19.219Z,16.61
2018-05-24T07:17:47.475Z,16.86
2018-05-24T07:20:16.529Z,17.06
2018-05-24T07:22:44.855Z,17.48
2018-05-24T07:25:14.466Z,17.58
2018-05-24T07:27:42.727Z,17.02
2018-05-24T07:30:10.987Z,17.74
2018-05-24T07:32:40.020Z,17.95
2018-05-24T07:35:09.067Z,18.25
2018-05-24T07:37:37.365Z,18.76
2018-05-24T07:40:05.574Z,18.77
2018-05-24T07:42:34.597Z,18.92
2018-05-24T07:45:02.876Z,18.81
2018-05-24T07:47:31.967Z,18.71
2018-05-24T07:50:00.235Z,18.34
2018-05-24T07:52:29.262Z,18.67
2018-05-24T07:54:57.543Z,18.71
2018-05-24T07:57:25.777Z,19.52
2018-05-24T07:59:54.813Z,19.96
2018-05-24T08:02:23.130Z,20.37
2018-05-24T08:04:51.400Z,19.63
2018-05-24T08:07:19.655Z,19.08
2018-05-24T08:09:47.924Z,19.22
2018-05-24T08:12:16.946Z,19.11
2018-05-24T08:14:45.244Z,18.92
2018-05-24T08:17:14.222Z,18.51
2018-05-24T08:19:42.494Z,18.76
2018-05-24T08:22:10.764Z,18.82
2018-05-24T08:24:39.043Z,17.88
2018-05-24T08:27:07.319Z,17.72
2018-05-24T08:29:37.595Z,18.26
2018-05-24T08:32:05.861Z,18.70
2018-05-24T08:34:34.131Z,18.64
2018-05-24T08:37:02.390Z,18.38
2018-05-24T08:39:30.643Z,18.23
2018-05-24T08:41:59.677Z,18.75
2018-05-24T08:44:27.936Z,19.14
2018-05-24T08:46:57.107Z,19.77
2018-05-24T08:49:25.361Z,19.84
2018-05-24T08:51:53.628Z,20.24
2018-05-24T08:54:21.887Z,19.74
2018-05-24T08:56:50.161Z,20.18
2018-05-24T08:59:19.183Z,20.24
2018-05-24T09:01:47.450Z,19.97
2018-05-24T09:04:15.707Z,19.93
2018-05-24T09:06:44.740Z,20.54
2018-05-24T09:09:12.990Z,20.02
2018-05-24T09:11:42.019Z,20.92
2018-05-24T09:14:10.290Z,21.12
2018-05-24T09:16:38.555Z,21.39
2018-05-24T09:19:07.578Z,21.15
2018-05-24T09:21:36.123Z,21.15
2018-05-24T09:24:05.151Z,19.40
2018-05-24T09:26:33.427Z,19.62
2018-05-24T09:29:02.468Z,19.87
2018-05-24T09:31:30.726Z,20.57
2018-05-24T09:33:58.984Z,20.63
2018-05-24T09:36:28.019Z,19.94
2018-05-24T09:38:56.277Z,20.62
2018-05-24T09:41:24.547Z,20.20
2018-05-24T09:43:52.798Z,20.20
2018-05-24T09:46:21.838Z,19.48
2018-05-24T09:48:50.088Z,19.39
2018-05-24T09:51:19.117Z,19.15
2018-05-24T09:53:48.279Z,18.62
2018-05-24T09:56:17.306Z,19.42
2018-05-24T09:58:45.559Z,20.26
2018-05-24T10:01:14.590Z,20.59
2018-05-24T10:03:42.845Z,20.82
2018-05-24T10:06:11.875Z,21.17
2018-05-24T10:08:40.136Z,21.57
2018-05-24T10:11:09.455Z,21.39
2018-05-24T10:13:37.711Z,21.46
2018-05-24T10:16:07.440Z,21.41
2018-05-24T10:18:35.927Z,21.10
2018-05-24T10:21:04.175Z,21.68
2018-05-24T10:23:33.231Z,21.87
2018-05-24T10:26:01.466Z,22.40
2018-05-24T10:28:30.495Z,22.44
2018-05-24T10:30:58.754Z,22.13
2018-05-24T10:33:27.011Z,21.93
2018-05-24T10:35:56.850Z,22.64
2018-05-24T10:38:25.873Z,23.31
2018-05-24T10:40:54.131Z,24.03
2018-05-24T10:43:23.169Z,25.20
2018-05-24T10:45:51.428Z,24.61
2018-05-24T10:48:19.687Z,25.39
2018-05-24T10:50:47.959Z,26.82
2018-05-24T10:53:16.999Z,26.49
2018-05-24T10:55:45.987Z,25.79
2018-05-24T10:58:14.250Z,25.84
2018-05-24T11:00:42.546Z,25.27
2018-05-24T11:03:10.862Z,25.76
2018-05-24T11:05:39.074Z,28.43
2018-05-24T11:08:08.100Z,29.02
2018-05-24T11:10:36.362Z,28.86
2018-05-24T11:13:05.391Z,29.61
2018-05-24T11:15:33.664Z,27.07
2018-05-24T11:18:01.928Z,25.59
2018-05-24T11:20:30.938Z,28.32
2018-05-24T11:22:59.192Z,28.24
2018-05-24T11:25:28.223Z,26.36
2018-05-24T11:27:56.493Z,25.60
2018-05-24T11:30:24.747Z,25.46
2018-05-24T11:32:53.763Z,25.01
2018-05-24T11:35:22.351Z,26.29
2018-05-24T11:37:50.598Z,25.53
2018-05-24T11:40:19.618Z,24.42
2018-05-24T11:42:48.651Z,22.45
2018-05-24T11:45:16.898Z,21.81
2018-05-24T11:47:45.927Z,22.69
2018-05-24T11:50:14.179Z,23.58
2018-05-24T11:52:44.241Z,24.03
2018-05-24T11:55:12.499Z,23.60
2018-05-24T11:57:40.752Z,23.58
2018-05-24T12:00:09.783Z,24.82
2018-05-24T12:02:38.043Z,28.50
2018-05-24T12:05:07.055Z,30.80
2018-05-24T12:07:35.319Z,31.07
2018-05-24T12:10:03.572Z,31.59
2018-05-24T12:12:32.614Z,29.79
2018-05-24T12:15:02.670Z,31.20
2018-05-24T12:17:30.921Z,27.97
2018-05-24T12:19:59.175Z,25.70
2018-05-24T12:22:28.199Z,25.03
2018-05-24T12:24:56.469Z,22.87
2018-05-24T12:27:24.726Z,22.68
2018-05-24T12:29:53.750Z,22.72
2018-05-24T12:32:22.014Z,23.46
2018-05-24T12:34:50.285Z,23.21
2018-05-24T12:37:19.321Z,23.26
2018-05-24T12:39:47.599Z,22.94
2018-05-24T12:42:15.873Z,23.93
2018-05-24T12:44:44.124Z,23.64
2018-05-24T12:47:14.395Z,23.93
2018-05-24T12:49:42.648Z,23.48
2018-05-24T12:52:10.911Z,23.17
2018-05-24T12:54:40.059Z,23.21
2018-05-24T12:57:09.043Z,23.05
2018-05-24T12:59:37.314Z,23.08
2018-05-24T13:02:05.583Z,22.76
2018-05-24T13:04:33.899Z,21.95
2018-05-24T13:07:02.872Z,21.36
2018-05-24T13:09:31.118Z,21.97
2018-05-24T13:12:00.204Z,21.96
2018-05-24T13:14:28.399Z,21.97
2018-05-24T13:16:57.481Z,21.34
2018-05-24T13:19:28.084Z,21.68
2018-05-24T13:21:56.346Z,21.79
2018-05-24T13:24:24.712Z,21.96
2018-05-24T13:26:52.895Z,22.05
2018-05-24T13:29:21.171Z,22.08
2018-05-24T13:31:50.274Z,21.71
2018-05-24T13:34:18.551Z,21.73
2018-05-24T13:36:47.575Z,21.87
2018-05-24T13:39:15.991Z,21.78
2018-05-24T13:41:44.239Z,21.73
2018-05-24T13:44:12.513Z,22.04
2018-05-24T13:46:40.766Z,22.03
2018-05-24T13:49:09.789Z,21.81
2018-05-24T13:51:38.666Z,21.90
2018-05-24T13:54:07.691Z,21.34
2018-05-24T13:56:35.954Z,21.43
2018-05-24T13:59:04.216Z,21.29
2018-05-24T14:01:33.245Z,21.18
2018-05-24T14:04:01.503Z,21.16
2018-05-24T14:06:30.527Z,21.34
2018-05-24T14:08:58.817Z,21.29
2018-05-24T14:11:27.075Z,21.24
2018-05-24T14:13:55.342Z,21.34
2018-05-24T14:16:23.599Z,21.21
2018-05-24T14:18:52.940Z,21.12
2018-05-24T14:21:21.210Z,21.02
2018-05-24T14:23:50.707Z,21.65
2018-05-24T14:26:19.746Z,21.31
2018-05-24T14:28:48.012Z,21.56
2018-05-24T14:31:16.274Z,21.67
2018-05-24T14:33:45.605Z,22.05
2018-05-24T14:36:13.864Z,21.69
2018-05-24T14:38:42.118Z,22.15
2018-05-24T14:41:11.151Z,21.68
2018-05-24T14:43:39.404Z,21.97
2018-05-24T14:46:08.518Z,21.82
2018-05-24T14:48:37.555Z,22.06
2018-05-24T14:51:05.815Z,22.83
2018-05-24T14:53:34.078Z,22.57
2018-05-24T14:56:02.350Z,23.35
2018-05-24T14:58:31.367Z,23.17
2018-05-24T15:00:59.631Z,22.02
2018-05-24T15:03:28.662Z,22.07
2018-05-24T15:05:56.927Z,21.63
2018-05-24T15:08:25.198Z,22.42
2018-05-24T15:10:54.211Z,22.24
2018-05-24T15:16:32.207Z,22.64
2018-05-24T15:19:00.467Z,23.20
2018-05-24T15:21:29.495Z,23.34
2018-05-24T15:23:57.751Z,22.88
2018-05-24T15:26:26.882Z,22.75
2018-05-24T15:28:55.156Z,22.28
2018-05-24T15:31:23.420Z,22.29
2018-05-24T15:33:51.715Z,23.08
2018-05-24T15:36:20.723Z,22.29
2018-05-24T15:38:48.995Z,21.89
2018-05-24T15:41:17.258Z,22.10
2018-05-24T15:43:46.255Z,22.55
2018-05-24T15:46:15.280Z,22.07
2018-05-24T15:48:43.532Z,21.88
2018-05-24T15:51:12.563Z,21.95
2018-05-24T15:53:40.811Z,21.95
2018-05-24T15:56:09.099Z,21.85
2018-05-24T15:58:37.366Z,22.16
2018-05-24T16:01:06.390Z,21.92
2018-05-24T16:03:34.641Z,22.14
2018-05-24T16:06:03.763Z,22.11
2018-05-24T16:08:32.028Z,22.12
2018-05-24T16:11:01.058Z,22.76
2018-05-24T16:13:29.311Z,22.80
2018-05-24T16:15:59.034Z,23.24
2018-05-24T16:18:27.285Z,23.10
2018-05-24T16:20:56.318Z,23.05
2018-05-24T16:23:24.566Z,23.23
2018-05-24T16:25:53.631Z,22.93
2018-05-24T16:28:21.963Z,22.57
2018-05-24T16:30:50.233Z,22.69
2018-05-24T16:33:19.258Z,22.96
2018-05-24T16:35:47.520Z,23.09
2018-05-24T16:38:15.787Z,23.20
2018-05-24T16:40:44.811Z,23.07
2018-05-24T16:43:13.058Z,22.47
2018-05-24T16:45:41.327Z,22.32
2018-05-24T16:48:09.583Z,21.96
2018-05-24T16:50:37.849Z,21.66
2018-05-24T16:53:06.098Z,21.63
2018-05-24T16:55:35.135Z,21.45
2018-05-24T16:58:03.378Z,21.31
2018-05-24T17:00:31.685Z,21.15
2018-05-24T17:03:00.676Z,21.12
2018-05-24T17:05:28.940Z,20.78
2018-05-24T17:07:57.203Z,20.97
2018-05-24T17:10:26.238Z,20.76
2018-05-24T17:12:54.492Z,20.65
2018-05-24T17:15:23.514Z,20.51
2018-05-24T17:17:51.766Z,20.30
2018-05-24T17:20:20.826Z,20.00
2018-05-24T17:22:49.095Z,20.04
2018-05-24T17:25:17.354Z,19.77
2018-05-24T17:27:45.621Z,19.65
2018-05-24T17:30:13.883Z,19.47
2018-05-24T17:32:42.903Z,19.43
2018-05-24T17:35:11.172Z,19.42
2018-05-24T17:37:39.430Z,19.38
2018-05-24T17:40:08.605Z,19.27
2018-05-24T17:42:36.876Z,19.31
2018-05-24T17:45:05.143Z,19.31
2018-05-24T17:47:33.413Z,19.28
2018-05-24T17:50:01.683Z,19.18
2018-05-24T17:52:29.932Z,19.14
2018-05-24T17:54:58.964Z,19.13
2018-05-24T17:57:27.235Z,19.13
2018-05-24T17:59:55.512Z,19.03
2018-05-24T18:02:25.779Z,18.93
2018-05-24T18:04:54.039Z,18.93
2018-05-24T18:07:22.301Z,18.86
2018-05-24T18:09:50.562Z,18.81
2018-05-24T18:12:18.830Z,18.79
2018-05-24T18:14:48.607Z,18.68
2018-05-24T18:17:17.054Z,18.63
2018-05-24T18:19:46.063Z,18.98
2018-05-24T18:22:14.332Z,19.03
2018-05-24T18:24:43.364Z,19.17
2018-05-24T18:27:11.684Z,18.77
2018-05-24T18:29:39.884Z,18.87
2018-05-24T18:32:08.997Z,18.74
2018-05-24T18:34:37.995Z,19.04
2018-05-24T18:37:06.269Z,19.05
2018-05-24T18:39:35.303Z,18.68
2018-05-24T18:42:03.572Z,18.54
2018-05-24T18:44:31.823Z,18.50
2018-05-24T18:47:00.854Z,18.46
2018-05-24T18:49:29.111Z,18.55
2018-05-24T18:51:58.138Z,18.28
2018-05-24T18:54:26.394Z,18.11
2018-05-24T18:56:54.676Z,18.01
2018-05-24T18:59:22.926Z,17.87
2018-05-24T19:01:51.955Z,17.75
2018-05-24T19:04:20.211Z,17.65
2018-05-24T19:06:50.485Z,17.79
2018-05-24T19:09:18.768Z,17.58
2018-05-24T19:11:47.035Z,17.49
2018-05-24T19:14:15.288Z,17.41
2018-05-24T19:16:44.401Z,17.27
2018-05-24T19:19:12.658Z,17.19
2018-05-24T19:21:41.688Z,17.10
2018-05-24T19:24:09.944Z,17.03
2018-05-24T19:26:38.977Z,16.95
2018-05-24T19:29:07.235Z,16.89
2018-05-24T19:31:35.502Z,16.91
2018-05-24T19:34:04.531Z,16.91
2018-05-24T19:36:32.786Z,17.05
2018-05-24T19:39:01.821Z,17.27
2018-05-24T19:41:30.075Z,17.41
2018-05-24T19:43:58.349Z,17.29
2018-05-24T19:46:27.367Z,17.24
2018-05-24T19:48:56.243Z,17.29
2018-05-24T19:51:24.523Z,17.16
2018-05-24T19:53:53.547Z,16.93
2018-05-24T19:56:21.808Z,16.83
2018-05-24T19:58:50.088Z,16.69
2018-05-24T20:01:19.118Z,16.62
2018-05-24T20:03:47.462Z,16.36
2018-05-24T20:06:15.723Z,16.17
2018-05-24T20:08:44.747Z,15.97
2018-05-24T20:11:13.022Z,15.76
2018-05-24T20:13:41.295Z,15.60
2018-05-24T20:16:10.327Z,15.43
2018-05-24T20:18:38.601Z,15.28
2018-05-24T20:21:07.876Z,15.12
2018-05-24T20:23:36.907Z,15.02
2018-05-24T20:26:05.168Z,14.89
2018-05-24T20:28:33.445Z,14.77
2018-05-24T20:31:01.753Z,15.02
2018-05-24T20:33:30.013Z,14.93
2018-05-24T20:35:58.283Z,14.74
2018-05-24T20:38:27.299Z,14.79
2018-05-24T20:40:55.572Z,14.47
2018-05-24T20:43:23.850Z,14.72
2018-05-24T20:45:52.137Z,14.81
2018-05-24T20:48:20.406Z,14.70
2018-05-24T20:50:49.419Z,14.49
2018-05-24T20:53:18.201Z,14.12
2018-05-24T20:55:46.470Z,14.28
2018-05-24T20:58:15.496Z,14.20
2018-05-24T21:00:43.783Z,13.79
2018-05-24T21:03:12.027Z,14.06
2018-05-24T21:05:41.053Z,14.00
2018-05-24T21:08:09.303Z,13.71
2018-05-24T21:10:38.337Z,13.47
2018-05-24T21:13:06.600Z,13.23
2018-05-24T21:15:35.467Z,13.23
2018-05-24T21:18:04.499Z,13.07
2018-05-24T21:20:32.747Z,12.91
2018-05-24T21:23:01.778Z,12.85
2018-05-24T21:25:30.033Z,13.31
2018-05-24T21:27:59.063Z,13.36
2018-05-24T21:30:27.373Z,13.17
2018-05-24T21:32:55.605Z,13.20
2018-05-24T21:35:24.698Z,13.78
2018-05-24T21:37:53.781Z,13.65
2018-05-24T21:40:21.997Z,13.92
2018-05-24T21:42:50.263Z,13.74
2018-05-24T21:45:18.532Z,13.60
2018-05-24T21:47:47.567Z,13.56
2018-05-24T21:50:15.821Z,13.54
2018-05-24T21:52:45.126Z,13.78
2018-05-24T21:55:13.378Z,13.46
2018-05-24T21:57:42.879Z,13.33
2018-05-24T22:00:11.902Z,13.31
2018-05-24T22:02:40.949Z,13.62
2018-05-24T22:05:09.216Z,13.46
2018-05-24T22:07:37.481Z,13.42
2018-05-24T22:10:05.743Z,13.22
2018-05-24T22:12:34.775Z,13.03
2018-05-24T22:15:03.059Z,12.86
2018-05-24T22:17:31.307Z,12.81
2018-05-24T22:20:00.343Z,12.70
2018-05-24T22:22:28.588Z,12.93
2018-05-24T22:24:56.861Z,12.92
2018-05-24T22:27:25.893Z,12.85
2018-05-24T22:29:54.951Z,12.40
2018-05-24T22:32:23.978Z,12.24
2018-05-24T22:34:52.239Z,12.08
2018-05-24T22:37:21.256Z,12.00
2018-05-24T22:39:49.511Z,11.92
2018-05-24T22:42:18.538Z,11.85
2018-05-24T22:44:46.793Z,11.77
2018-05-24T22:47:15.807Z,11.87
2018-05-24T22:49:44.075Z,11.72
2018-05-24T22:52:12.890Z,11.93
2018-05-24T22:54:41.170Z,11.70
2018-05-24T22:57:09.447Z,11.63
2018-05-24T22:59:37.732Z,11.56
2018-05-24T23:02:06.558Z,11.47
2018-05-24T23:04:34.806Z,11.49
2018-05-24T23:07:03.059Z,11.48
2018-05-24T23:09:32.093Z,11.42
2018-05-24T23:12:00.343Z,11.29
2018-05-24T23:14:29.381Z,11.27
2018-05-24T23:16:57.618Z,11.22
2018-05-24T23:19:26.646Z,11.18
2018-05-24T23:21:54.902Z,11.17
2018-05-24T23:24:23.177Z,11.15
2018-05-24T23:26:52.215Z,11.08
2018-05-24T23:29:20.567Z,11.08
2018-05-24T23:31:48.831Z,11.08
2018-05-24T23:34:19.108Z,11.13
2018-05-24T23:36:47.363Z,11.06
2018-05-24T23:39:15.630Z,10.91
2018-05-24T23:41:43.917Z,11.17
2018-05-24T23:44:13.646Z,11.17
2018-05-24T23:46:41.928Z,11.03
2018-05-24T23:49:10.176Z,10.71
2018-05-24T23:51:39.199Z,10.96
2018-05-24T23:54:07.463Z,10.71
2018-05-24T23:56:35.730Z,10.57
2018-05-24T23:59:04.757Z,10.44
